createdAt,value
2022-07-29T00:00:23.384Z,9.93
2022-07-29T00:02:57.291Z,8.65
2022-07-29T00:05:30.114Z,10.23
2022-07-29T00:08:03.471Z,8.80
2022-07-29T00:10:37.175Z,9.83
2022-07-29T00:13:10.189Z,11.75
2022-07-29T00:15:44.118Z,10.10
2022-07-29T00:18:17.418Z,11.40
2022-07-29T00:20:50.856Z,9.55
2022-07-29T00:23:24.186Z,11.60
2022-07-29T00:25:57.132Z,8.85
2022-07-29T00:28:30.308Z,12.20
2022-07-29T00:31:03.591Z,9.00
2022-07-29T00:33:37.148Z,11.33
2022-07-29T00:36:09.899Z,9.63
2022-07-29T00:38:45.417Z,16.27
2022-07-29T00:41:18.881Z,8.15
2022-07-29T00:43:53.026Z,13.43
2022-07-29T00:46:25.916Z,10.32
2022-07-29T00:48:58.754Z,9.33
2022-07-29T00:51:32.264Z,13.20
2022-07-29T00:54:07.023Z,11.35
2022-07-29T00:56:39.909Z,9.33
2022-07-29T00:59:13.728Z,8.80
2022-07-29T01:01:47.424Z,12.03
2022-07-29T01:04:20.852Z,11.10
2022-07-29T01:09:34.983Z,10.78
2022-07-29T01:12:04.284Z,11.48
2022-07-29T01:14:39.768Z,9.68
2022-07-29T01:17:26.397Z,12.90
2022-07-29T01:20:31.887Z,10.65
2022-07-29T01:23:16.140Z,10.90
2022-07-29T01:26:11.882Z,9.93
2022-07-29T01:28:51.206Z,10.25
2022-07-29T01:31:59.207Z,9.33
2022-07-29T01:34:46.756Z,11.75
2022-07-29T01:37:38.347Z,10.25
2022-07-29T01:40:35.016Z,9.45
2022-07-29T01:43:15.314Z,14.07
2022-07-29T01:46:04.227Z,11.30
2022-07-29T01:48:53.739Z,9.83
2022-07-29T01:51:45.560Z,12.07
2022-07-29T01:54:46.857Z,8.00
2022-07-29T01:57:21.422Z,9.00
2022-07-29T01:59:54.667Z,11.12
2022-07-29T02:02:28.603Z,11.03
2022-07-29T02:05:03.083Z,10.80
2022-07-29T02:07:37.499Z,13.68
2022-07-29T02:10:13.194Z,10.55
2022-07-29T02:12:50.715Z,9.75
2022-07-29T02:15:23.593Z,10.75
2022-07-29T02:18:11.732Z,9.68
2022-07-29T02:20:49.072Z,21.07
2022-07-29T02:23:25.116Z,12.95
2022-07-29T02:26:00.003Z,12.78
2022-07-29T02:28:34.935Z,10.53
2022-07-29T02:31:11.756Z,12.47
2022-07-29T02:33:45.244Z,11.50
2022-07-29T02:36:19.660Z,14.50
2022-07-29T02:38:53.905Z,11.70
2022-07-29T02:41:39.531Z,17.23
2022-07-29T02:44:17.321Z,11.03
2022-07-29T02:46:57.189Z,11.48
2022-07-29T02:49:53.754Z,13.78
2022-07-29T02:52:37.573Z,9.88
2022-07-29T02:55:46.864Z,16.80
2022-07-29T02:58:29.286Z,14.07
2022-07-29T03:01:08.484Z,11.05
2022-07-29T03:03:41.690Z,10.40
2022-07-29T03:06:31.027Z,12.60
2022-07-29T03:08:52.822Z,12.58
2022-07-29T03:11:41.498Z,12.47
2022-07-29T03:14:01.893Z,10.70
2022-07-29T03:16:41.132Z,13.22
2022-07-29T03:19:12.644Z,11.83
2022-07-29T03:21:45.672Z,10.98
2022-07-29T03:24:39.117Z,15.45
2022-07-29T03:27:12.032Z,15.80
2022-07-29T03:29:50.006Z,11.03
2022-07-29T03:32:25.079Z,10.08
2022-07-29T03:34:54.941Z,11.22
2022-07-29T03:37:28.439Z,12.17
2022-07-29T03:40:02.697Z,14.20
2022-07-29T03:42:40.080Z,10.48
2022-07-29T03:45:16.370Z,10.45
2022-07-29T03:47:59.952Z,11.95
2022-07-29T03:50:31.402Z,9.33
2022-07-29T03:53:05.772Z,13.22
2022-07-29T03:55:46.087Z,15.15
2022-07-29T03:58:22.326Z,10.82
2022-07-29T04:00:57.499Z,9.88
2022-07-29T04:03:30.429Z,11.12
2022-07-29T04:06:08.991Z,13.75
2022-07-29T04:08:42.439Z,13.05
2022-07-29T04:11:16.263Z,12.60
2022-07-29T04:13:50.284Z,8.73
2022-07-29T04:16:23.661Z,10.13
2022-07-29T04:18:56.587Z,17.17
2022-07-29T04:21:30.044Z,19.62
2022-07-29T04:24:03.465Z,12.25
2022-07-29T04:26:37.102Z,11.10
2022-07-29T04:31:42.637Z,10.18
2022-07-29T04:34:16.130Z,10.90
2022-07-29T04:39:23.271Z,9.05
2022-07-29T04:41:56.529Z,9.60
2022-07-29T04:44:31.231Z,8.68
2022-07-29T04:47:05.840Z,9.70
2022-07-29T04:49:43.065Z,10.72
2022-07-29T04:52:15.843Z,8.75
2022-07-29T04:54:49.151Z,8.28
2022-07-29T04:57:22.835Z,9.50
2022-07-29T04:59:55.966Z,8.78
2022-07-29T05:02:29.087Z,8.45
2022-07-29T05:05:02.812Z,11.03
2022-07-29T05:07:36.255Z,7.65
2022-07-29T05:10:10.072Z,9.13
2022-07-29T05:15:15.475Z,10.75
2022-07-29T05:17:48.990Z,8.38
2022-07-29T05:20:23.504Z,10.08
2022-07-29T05:22:57.395Z,7.65
2022-07-29T05:25:44.366Z,9.13
2022-07-29T05:28:07.257Z,9.78
2022-07-29T05:30:40.675Z,10.07
2022-07-29T05:33:35.124Z,10.23
2022-07-29T05:35:48.811Z,11.43
2022-07-29T05:38:21.866Z,7.33
2022-07-29T05:40:54.945Z,8.75
2022-07-29T05:43:31.302Z,11.45
2022-07-29T05:46:04.406Z,9.55
2022-07-29T05:48:37.391Z,9.30
2022-07-29T05:51:10.545Z,10.10
2022-07-29T05:53:43.342Z,8.10
2022-07-29T05:56:16.568Z,11.03
2022-07-29T06:01:22.711Z,8.55
2022-07-29T06:03:56.023Z,10.20
2022-07-29T06:06:28.858Z,10.00
2022-07-29T06:09:12.321Z,9.50
2022-07-29T06:11:39.150Z,10.23
2022-07-29T06:14:12.615Z,9.03
2022-07-29T06:16:45.525Z,7.45
2022-07-29T06:19:18.407Z,6.55
2022-07-29T06:21:52.264Z,7.45
2022-07-29T06:24:25.147Z,13.10
2022-07-29T06:26:58.732Z,10.72
2022-07-29T06:29:31.916Z,7.92
2022-07-29T06:34:39.654Z,7.08
2022-07-29T06:37:15.557Z,10.08
2022-07-29T06:39:48.886Z,10.32
2022-07-29T06:42:22.876Z,6.37
2022-07-29T06:44:56.992Z,8.53
2022-07-29T06:47:30.629Z,6.95
2022-07-29T06:50:03.602Z,8.35
2022-07-29T06:52:38.139Z,10.15
2022-07-29T06:55:12.003Z,6.53
2022-07-29T06:57:46.544Z,7.65
2022-07-29T07:00:22.567Z,7.95
2022-07-29T07:02:56.153Z,7.80
2022-07-29T07:05:29.276Z,10.65
2022-07-29T07:08:02.709Z,9.40
2022-07-29T07:10:37.121Z,9.88
2022-07-29T07:15:42.828Z,6.80
2022-07-29T07:18:16.718Z,12.25
2022-07-29T07:20:50.273Z,8.83
2022-07-29T07:23:23.651Z,9.08
2022-07-29T07:25:56.983Z,6.58
2022-07-29T07:28:30.200Z,7.80
2022-07-29T07:31:04.653Z,9.60
2022-07-29T07:33:38.138Z,5.62
2022-07-29T07:36:10.973Z,5.10
2022-07-29T07:38:45.197Z,6.28
2022-07-29T07:41:18.541Z,5.90
2022-07-29T07:43:51.982Z,6.73
2022-07-29T07:46:26.032Z,5.67
2022-07-29T07:48:59.533Z,7.12
2022-07-29T07:51:32.825Z,8.53
2022-07-29T07:54:05.771Z,5.42
2022-07-29T07:56:39.308Z,5.60
2022-07-29T07:59:12.773Z,7.05
2022-07-29T08:01:55.281Z,11.00
2022-07-29T08:04:25.117Z,6.28
2022-07-29T08:06:55.538Z,9.10
2022-07-29T08:09:31.209Z,6.62
2022-07-29T08:12:05.121Z,9.25
2022-07-29T08:14:38.981Z,8.88
2022-07-29T08:17:13.416Z,6.72
2022-07-29T08:19:48.556Z,6.62
2022-07-29T08:22:22.495Z,9.40
2022-07-29T08:24:57.446Z,5.28
2022-07-29T08:27:47.557Z,6.58
2022-07-29T08:30:07.966Z,8.08
2022-07-29T08:32:53.646Z,6.33
2022-07-29T08:35:16.469Z,6.45
2022-07-29T08:37:50.940Z,5.50
2022-07-29T08:40:32.099Z,8.45
2022-07-29T08:43:00.861Z,7.22
2022-07-29T08:45:48.033Z,7.47
2022-07-29T08:48:25.134Z,5.35
2022-07-29T08:50:59.827Z,4.97
2022-07-29T08:53:33.980Z,9.20
2022-07-29T08:56:07.161Z,6.90
2022-07-29T08:58:40.158Z,7.10
2022-07-29T09:01:16.664Z,6.28
2022-07-29T09:03:52.839Z,11.80
2022-07-29T09:06:27.663Z,8.53
2022-07-29T09:09:02.469Z,6.28
2022-07-29T09:11:36.094Z,5.92
2022-07-29T09:14:09.975Z,7.80
2022-07-29T09:19:36.051Z,6.15
2022-07-29T09:22:11.312Z,8.50
2022-07-29T09:24:51.812Z,5.83
2022-07-29T09:27:30.012Z,5.92
2022-07-29T09:30:11.799Z,8.45
2022-07-29T09:33:04.208Z,8.18
2022-07-29T09:35:37.406Z,6.00
2022-07-29T09:38:15.979Z,5.85
2022-07-29T09:41:05.497Z,6.62
2022-07-29T09:43:36.429Z,7.08
2022-07-29T09:46:16.499Z,7.42
2022-07-29T09:49:12.290Z,6.37
2022-07-29T09:51:45.771Z,5.30
2022-07-29T09:54:29.666Z,7.10
2022-07-29T09:57:02.916Z,5.67
2022-07-29T09:59:36.753Z,8.73
2022-07-29T10:02:23.514Z,5.70
2022-07-29T10:04:53.571Z,10.90
2022-07-29T10:07:27.861Z,4.87
2022-07-29T10:10:01.229Z,7.12
2022-07-29T10:12:34.664Z,5.28
2022-07-29T10:15:08.563Z,8.40
2022-07-29T10:17:42.295Z,6.67
2022-07-29T10:22:53.474Z,7.60
2022-07-29T10:25:28.203Z,6.97
2022-07-29T10:28:01.775Z,7.97
2022-07-29T10:30:36.268Z,5.83
2022-07-29T10:33:32.579Z,7.65
2022-07-29T10:36:36.298Z,5.58
2022-07-29T10:39:45.226Z,5.90
2022-07-29T10:42:33.533Z,6.95
2022-07-29T10:45:00.247Z,6.85
2022-07-29T10:47:35.052Z,7.03
2022-07-29T10:50:12.777Z,5.00
2022-07-29T10:52:58.592Z,6.12
2022-07-29T10:55:37.883Z,8.53
2022-07-29T10:58:19.657Z,7.03
2022-07-29T11:00:56.426Z,6.17
2022-07-29T11:06:28.245Z,8.70
2022-07-29T11:09:35.223Z,8.05
2022-07-29T11:11:57.626Z,5.03
2022-07-29T11:15:02.738Z,7.12
2022-07-29T11:20:56.271Z,5.78
2022-07-29T11:23:36.729Z,5.40
2022-07-29T11:26:23.923Z,7.65
2022-07-29T11:29:01.624Z,5.65
2022-07-29T11:31:45.430Z,4.62
2022-07-29T11:34:36.738Z,7.17
2022-07-29T11:37:17.770Z,8.73
2022-07-29T11:40:02.243Z,7.12
2022-07-29T11:42:41.723Z,7.08
2022-07-29T11:45:41.253Z,5.30
2022-07-29T11:48:26.978Z,6.95
2022-07-29T11:50:44.300Z,5.20
2022-07-29T11:53:16.419Z,4.50
2022-07-29T11:55:52.094Z,4.92
2022-07-29T11:58:25.948Z,7.12
2022-07-29T12:01:04.494Z,5.33
2022-07-29T12:03:36.987Z,4.97
2022-07-29T12:06:18.273Z,9.28
2022-07-29T12:08:52.548Z,8.58
2022-07-29T12:11:25.738Z,6.33
2022-07-29T12:13:59.628Z,7.10
2022-07-29T12:16:40.618Z,4.83
2022-07-29T12:19:13.706Z,6.62
2022-07-29T12:21:59.585Z,7.72
2022-07-29T12:24:35.679Z,5.92
2022-07-29T12:27:10.884Z,6.60
2022-07-29T12:29:48.847Z,6.90
2022-07-29T12:32:21.633Z,5.58
2022-07-29T12:34:54.772Z,5.85
2022-07-29T12:37:35.785Z,5.53
2022-07-29T12:40:03.446Z,6.17
2022-07-29T12:42:38.839Z,5.90
2022-07-29T12:45:12.285Z,5.55
2022-07-29T12:47:55.397Z,4.65
2022-07-29T12:50:28.841Z,4.47
2022-07-29T12:53:15.876Z,4.60
2022-07-29T12:55:54.894Z,8.63
2022-07-29T12:58:38.260Z,8.28
2022-07-29T13:01:19.220Z,5.03
2022-07-29T13:04:00.938Z,5.00
2022-07-29T13:06:49.677Z,9.65
2022-07-29T13:09:25.088Z,6.22
2022-07-29T13:11:58.778Z,5.30
2022-07-29T13:14:41.937Z,5.37
2022-07-29T13:17:24.260Z,6.87
2022-07-29T13:20:14.907Z,8.48
2022-07-29T13:22:51.272Z,10.15
2022-07-29T13:25:31.633Z,8.60
2022-07-29T13:28:04.447Z,12.75
2022-07-29T13:30:44.484Z,7.00
2022-07-29T13:33:13.431Z,5.90
2022-07-29T13:35:46.432Z,5.77
2022-07-29T13:38:19.760Z,4.58
2022-07-29T13:40:52.909Z,5.62
2022-07-29T13:43:25.913Z,4.67
2022-07-29T13:46:00.722Z,5.67
2022-07-29T13:48:33.825Z,7.05
2022-07-29T13:51:06.894Z,4.85
2022-07-29T13:53:39.778Z,5.33
2022-07-29T13:56:13.290Z,5.92
2022-07-29T13:58:46.204Z,10.37
2022-07-29T14:01:19.562Z,9.40
2022-07-29T14:03:52.378Z,6.47
2022-07-29T14:06:25.373Z,5.33
2022-07-29T14:11:31.061Z,5.87
2022-07-29T14:14:04.153Z,7.45
2022-07-29T14:16:42.386Z,8.20
2022-07-29T14:19:12.442Z,4.90
2022-07-29T14:21:46.137Z,6.05
2022-07-29T14:24:21.718Z,7.42
2022-07-29T14:26:54.170Z,6.42
2022-07-29T14:29:37.440Z,7.28
2022-07-29T14:32:03.165Z,6.58
2022-07-29T14:34:38.471Z,8.50
2022-07-29T14:37:16.050Z,7.17
2022-07-29T14:39:46.670Z,4.95
2022-07-29T14:42:19.574Z,7.40
2022-07-29T14:44:53.699Z,6.22
2022-07-29T14:47:27.020Z,6.75
2022-07-29T14:50:01.418Z,7.30
2022-07-29T14:52:34.883Z,5.75
2022-07-29T14:55:19.414Z,10.85
2022-07-29T14:57:46.116Z,10.43
2022-07-29T15:00:22.146Z,7.08
2022-07-29T15:05:28.862Z,6.20
2022-07-29T15:08:03.616Z,6.70
2022-07-29T15:10:38.376Z,5.12
2022-07-29T15:13:12.388Z,5.47
2022-07-29T15:15:46.755Z,6.03
2022-07-29T15:20:53.354Z,9.23
2022-07-29T15:23:27.723Z,6.25
2022-07-29T15:26:00.711Z,7.30
2022-07-29T15:28:33.660Z,7.75
2022-07-29T15:31:08.038Z,11.12
2022-07-29T15:33:41.718Z,6.05
2022-07-29T15:36:42.215Z,5.28
2022-07-29T15:38:54.582Z,6.22
2022-07-29T15:41:27.839Z,7.53
2022-07-29T15:44:01.108Z,9.13
2022-07-29T15:46:51.995Z,5.40
2022-07-29T15:49:27.394Z,6.50
2022-07-29T15:52:03.936Z,5.65
2022-07-29T15:54:42.795Z,6.72
2022-07-29T15:57:16.823Z,5.90
2022-07-29T15:59:49.939Z,6.13
2022-07-29T16:02:23.463Z,9.23
2022-07-29T16:04:57.596Z,7.15
2022-07-29T16:07:31.441Z,7.28
2022-07-29T16:10:08.144Z,5.17
2022-07-29T16:12:42.056Z,4.33
2022-07-29T16:15:15.106Z,6.22
2022-07-29T16:17:50.026Z,5.45
2022-07-29T16:20:23.668Z,6.35
2022-07-29T16:22:57.168Z,5.33
2022-07-29T16:25:58.243Z,4.40
2022-07-29T16:28:05.273Z,6.03
2022-07-29T16:30:39.154Z,6.47
2022-07-29T16:33:12.245Z,6.03
2022-07-29T16:35:45.856Z,7.15
2022-07-29T16:38:19.896Z,4.87
2022-07-29T16:40:52.717Z,3.00
2022-07-29T16:43:27.948Z,4.17
2022-07-29T16:48:34.597Z,8.57
2022-07-29T16:51:10.327Z,5.20
2022-07-29T16:53:45.164Z,3.15
2022-07-29T16:56:18.551Z,3.37
2022-07-29T16:58:51.407Z,4.30
2022-07-29T17:01:24.929Z,5.10
2022-07-29T17:04:07.288Z,4.67
2022-07-29T17:06:42.348Z,5.12
2022-07-29T17:09:15.385Z,3.87
2022-07-29T17:11:56.199Z,6.60
2022-07-29T17:14:31.573Z,4.35
2022-07-29T17:17:05.158Z,6.50
2022-07-29T17:19:40.462Z,4.28
2022-07-29T17:22:19.320Z,7.12
2022-07-29T17:24:49.905Z,3.58
2022-07-29T17:27:24.132Z,3.75
2022-07-29T17:29:57.222Z,5.37
2022-07-29T17:32:33.273Z,7.08
2022-07-29T17:35:25.787Z,10.32
2022-07-29T17:37:58.664Z,3.67
2022-07-29T17:40:31.901Z,3.10
2022-07-29T17:43:07.554Z,5.40
2022-07-29T17:45:50.303Z,6.67
2022-07-29T17:48:15.431Z,6.35
2022-07-29T17:50:49.290Z,4.40
2022-07-29T17:53:22.597Z,9.78
2022-07-29T17:55:56.484Z,9.33
2022-07-29T17:58:29.281Z,7.97
2022-07-29T18:01:02.746Z,6.83
2022-07-29T18:03:36.220Z,6.95
2022-07-29T18:06:11.239Z,10.25
2022-07-29T18:08:47.448Z,5.90
2022-07-29T18:11:22.075Z,6.25
2022-07-29T18:13:54.983Z,5.83
2022-07-29T18:16:28.770Z,9.20
2022-07-29T18:19:02.677Z,8.15
2022-07-29T18:21:42.727Z,8.83
2022-07-29T18:24:11.387Z,5.80
2022-07-29T18:26:44.962Z,18.05
2022-07-29T18:29:18.591Z,10.00
2022-07-29T18:31:51.715Z,11.55
2022-07-29T18:34:26.203Z,8.08
2022-07-29T18:36:59.599Z,10.23
2022-07-29T18:39:33.468Z,6.55
2022-07-29T18:42:06.875Z,5.87
2022-07-29T18:44:43.645Z,6.50
2022-07-29T18:47:15.100Z,7.72
2022-07-29T18:49:48.065Z,9.33
2022-07-29T18:52:21.944Z,8.63
2022-07-29T18:54:54.953Z,7.97
2022-07-29T18:57:53.767Z,5.72
2022-07-29T19:00:03.004Z,5.72
2022-07-29T19:02:38.447Z,6.10
2022-07-29T19:05:12.657Z,7.95
2022-07-29T19:07:46.182Z,6.58
2022-07-29T19:10:19.693Z,6.92
2022-07-29T19:12:53.186Z,9.60
2022-07-29T19:15:26.391Z,8.05
2022-07-29T19:18:01.282Z,7.47
2022-07-29T19:20:34.472Z,6.95
2022-07-29T19:23:09.176Z,6.90
2022-07-29T19:25:53.247Z,6.40
2022-07-29T19:28:16.821Z,7.62
2022-07-29T19:30:50.267Z,5.67
2022-07-29T19:33:23.576Z,5.37
2022-07-29T19:35:56.517Z,5.92
2022-07-29T19:38:30.290Z,8.03
2022-07-29T19:41:06.404Z,6.40
2022-07-29T19:43:51.441Z,5.40
2022-07-29T19:46:13.861Z,4.42
2022-07-29T19:48:47.712Z,8.28
2022-07-29T19:51:21.580Z,5.60
2022-07-29T19:53:54.501Z,4.95
2022-07-29T19:56:29.233Z,9.15
2022-07-29T19:59:02.163Z,3.52
2022-07-29T20:01:35.215Z,5.67
2022-07-29T20:04:08.453Z,4.83
2022-07-29T20:06:41.351Z,7.33
2022-07-29T20:09:16.936Z,9.90
2022-07-29T20:11:49.735Z,5.33
2022-07-29T20:14:22.672Z,5.70
2022-07-29T20:16:56.232Z,5.03
2022-07-29T20:19:29.861Z,3.37
2022-07-29T20:22:03.478Z,7.30
2022-07-29T20:24:36.521Z,4.63
2022-07-29T20:27:13.706Z,5.95
2022-07-29T20:29:46.380Z,6.15
2022-07-29T20:32:20.138Z,6.42
2022-07-29T20:34:53.092Z,5.97
2022-07-29T20:37:28.269Z,5.53
2022-07-29T20:40:03.595Z,4.75
2022-07-29T20:42:36.928Z,7.55
2022-07-29T20:45:11.675Z,7.90
2022-07-29T20:47:45.943Z,5.60
2022-07-29T20:50:23.856Z,8.18
2022-07-29T20:52:57.632Z,6.65
2022-07-29T20:55:32.239Z,10.13
2022-07-29T20:58:06.064Z,6.58
2022-07-29T21:00:39.194Z,8.13
2022-07-29T21:03:12.050Z,6.47
2022-07-29T21:05:45.887Z,5.65
2022-07-29T21:08:18.796Z,4.97
2022-07-29T21:10:51.746Z,8.58
2022-07-29T21:13:25.830Z,4.92
2022-07-29T21:18:34.734Z,7.50
2022-07-29T21:21:08.613Z,8.13
2022-07-29T21:23:43.763Z,9.33
2022-07-29T21:26:16.605Z,5.72
2022-07-29T21:28:50.511Z,8.53
2022-07-29T21:31:24.267Z,6.12
2022-07-29T21:33:57.116Z,4.67
2022-07-29T21:39:06.380Z,4.50
2022-07-29T21:41:39.711Z,4.58
2022-07-29T21:44:12.662Z,5.12
2022-07-29T21:46:46.198Z,4.00
2022-07-29T21:49:19.287Z,4.80
2022-07-29T21:51:53.143Z,3.80
2022-07-29T21:54:26.049Z,6.25
2022-07-29T21:57:00.856Z,5.35
2022-07-29T21:59:34.486Z,6.58
2022-07-29T22:02:07.616Z,6.47
2022-07-29T22:04:40.602Z,5.20
2022-07-29T22:07:14.023Z,5.97
2022-07-29T22:09:46.938Z,5.75
2022-07-29T22:12:19.973Z,7.85
2022-07-29T22:14:53.806Z,9.58
2022-07-29T22:17:27.231Z,7.00
2022-07-29T22:20:00.816Z,8.00
2022-07-29T22:22:33.947Z,4.40
2022-07-29T22:25:08.203Z,6.03
2022-07-29T22:27:41.950Z,4.40
2022-07-29T22:30:15.410Z,6.65
2022-07-29T22:32:49.901Z,5.12
2022-07-29T22:35:22.749Z,5.90
2022-07-29T22:37:55.570Z,7.97
2022-07-29T22:40:30.701Z,5.67
2022-07-29T22:43:03.559Z,5.03
2022-07-29T22:45:36.540Z,5.22
2022-07-29T22:48:10.740Z,5.00
2022-07-29T22:50:44.579Z,5.72
2022-07-29T22:53:17.543Z,3.83
2022-07-29T22:55:52.788Z,4.12
2022-07-29T22:58:25.605Z,5.58
2022-07-29T23:00:58.581Z,6.50
2022-07-29T23:03:32.080Z,8.30
2022-07-29T23:06:05.098Z,9.43
2022-07-29T23:08:38.107Z,5.75
2022-07-29T23:11:11.693Z,7.80
2022-07-29T23:13:44.636Z,6.87
2022-07-29T23:16:26.261Z,5.53
2022-07-29T23:18:53.302Z,5.92
2022-07-29T23:21:26.517Z,7.22
2022-07-29T23:24:00.034Z,6.33
2022-07-29T23:26:33.957Z,6.05
2022-07-29T23:29:07.800Z,7.83
2022-07-29T23:31:47.945Z,5.78
2022-07-29T23:34:16.300Z,4.55
2022-07-29T23:36:50.673Z,5.20
2022-07-29T23:39:23.845Z,5.90
2022-07-29T23:41:57.036Z,2.98
2022-07-29T23:44:30.162Z,3.97
2022-07-29T23:47:03.671Z,4.33
2022-07-29T23:49:37.643Z,2.90
2022-07-29T23:52:11.163Z,5.05
2022-07-29T23:54:44.570Z,3.15
2022-07-29T23:57:17.545Z,3.77
2022-07-29T23:59:50.370Z,3.37
